SVA505 OEDF-OERK
Flight info
| Callsign | SVA505 |
|---|---|
| Flight time | 1h 4m |
| Altitude | 21000 |
| Route | EMUSA Q212 MEMGO |
| Aircraft | A321/M-SDE3FGHIRWY/LB1 |
Departure
| Time | 2026-04-24 19:48 |
|---|---|
| Airport | King Fahd International Airport (OEDF) |
Arrival
| Time | 2026-04-24 20:52 |
|---|---|
| Airport | King Khalid International Airport (OERK) |
| Time | Latitude | Longitude | Altitude | Speed | Heading |
|---|---|---|---|---|---|
| 2026-04-24 19:20 | 26.46630 | 49.79568 | 85 ft | 0 kts | 85° |
| 2026-04-24 19:33 | 26.46630 | 49.79566 | 85 ft | 2 kts | 85° |
| 2026-04-24 19:33 | 26.46628 | 49.79539 | 85 ft | 4 kts | 85° |
| 2026-04-24 19:33 | 26.46626 | 49.79509 | 85 ft | 4 kts | 90° |
| 2026-04-24 19:33 | 26.46629 | 49.79486 | 85 ft | 4 kts | 156° |
| 2026-04-24 19:34 | 26.46648 | 49.79482 | 85 ft | 4 kts | 172° |
| 2026-04-24 19:34 | 26.46659 | 49.79480 | 85 ft | 1 kts | 172° |
| 2026-04-24 19:38 | 26.46656 | 49.79480 | 85 ft | 1 kts | 172° |
| 2026-04-24 19:38 | 26.46646 | 49.79482 | 85 ft | 3 kts | 175° |
| 2026-04-24 19:39 | 26.46614 | 49.79484 | 85 ft | 5 kts | 175° |
| 2026-04-24 19:39 | 26.46580 | 49.79487 | 85 ft | 5 kts | 175° |
| 2026-04-24 19:39 | 26.46551 | 49.79490 | 85 ft | 4 kts | 175° |
| 2026-04-24 19:39 | 26.46528 | 49.79492 | 85 ft | 3 kts | 175° |
| 2026-04-24 19:40 | 26.46497 | 49.79488 | 85 ft | 6 kts | 196° |
| 2026-04-24 19:40 | 26.46470 | 49.79461 | 85 ft | 6 kts | 240° |
| 2026-04-24 19:40 | 26.46446 | 49.79376 | 85 ft | 16 kts | 254° |
| 2026-04-24 19:40 | 26.46415 | 49.79267 | 85 ft | 13 kts | 240° |
| 2026-04-24 19:41 | 26.46350 | 49.79237 | 85 ft | 12 kts | 172° |
| 2026-04-24 19:41 | 26.46272 | 49.79261 | 85 ft | 11 kts | 163° |
| 2026-04-24 19:41 | 26.46199 | 49.79286 | 85 ft | 10 kts | 163° |
| 2026-04-24 19:41 | 26.46132 | 49.79307 | 85 ft | 10 kts | 165° |
| 2026-04-24 19:42 | 26.46071 | 49.79326 | 85 ft | 9 kts | 165° |
| 2026-04-24 19:42 | 26.45999 | 49.79348 | 85 ft | 12 kts | 165° |
| 2026-04-24 19:42 | 26.45924 | 49.79371 | 85 ft | 11 kts | 165° |
| 2026-04-24 19:42 | 26.45854 | 49.79391 | 85 ft | 10 kts | 165° |
| 2026-04-24 19:43 | 26.45790 | 49.79410 | 85 ft | 9 kts | 165° |
| 2026-04-24 19:43 | 26.45732 | 49.79428 | 85 ft | 8 kts | 164° |
| 2026-04-24 19:43 | 26.45680 | 49.79444 | 85 ft | 8 kts | 164° |
| 2026-04-24 19:43 | 26.45626 | 49.79461 | 85 ft | 10 kts | 165° |
| 2026-04-24 19:44 | 26.45541 | 49.79487 | 85 ft | 14 kts | 165° |
| 2026-04-24 19:44 | 26.45462 | 49.79459 | 85 ft | 12 kts | 237° |
| 2026-04-24 19:44 | 26.45440 | 49.79390 | 85 ft | 5 kts | 255° |
| 2026-04-24 19:44 | 26.45431 | 49.79354 | 85 ft | 4 kts | 255° |
| 2026-04-24 19:45 | 26.45425 | 49.79326 | 85 ft | 3 kts | 256° |
| 2026-04-24 19:45 | 26.45425 | 49.79324 | 85 ft | 0 kts | 256° |
| 2026-04-24 19:46 | 26.45423 | 49.79307 | 85 ft | 4 kts | 264° |
| 2026-04-24 19:46 | 26.45427 | 49.79264 | 85 ft | 7 kts | 284° |
| 2026-04-24 19:47 | 26.45449 | 49.79214 | 85 ft | 7 kts | 306° |
| 2026-04-24 19:47 | 26.45503 | 49.79174 | 85 ft | 14 kts | 340° |
| 2026-04-24 19:47 | 26.45641 | 49.79132 | 86 ft | 39 kts | 345° |
| 2026-04-24 19:47 | 26.46128 | 49.78980 | 86 ft | 111 kts | 344° |
| 2026-04-24 19:48 | 26.47117 | 49.78672 | 91 ft | 181 kts | 343° |
| 2026-04-24 19:48 | 26.48481 | 49.78245 | 285 ft | 223 kts | 344° |
| 2026-04-24 19:48 | 26.51657 | 49.77273 | 1704 ft | 243 kts | 344° |
| 2026-04-24 19:49 | 26.54964 | 49.76249 | 3373 ft | 250 kts | 344° |
| 2026-04-24 19:49 | 26.58182 | 49.74752 | 3963 ft | 254 kts | 310° |
| 2026-04-24 19:50 | 26.58472 | 49.67136 | 6259 ft | 260 kts | 274° |
| 2026-04-24 19:51 | 26.59118 | 49.63099 | 7952 ft | 268 kts | 282° |
| 2026-04-24 19:51 | 26.59551 | 49.61057 | 8749 ft | 272 kts | 283° |
| 2026-04-24 19:52 | 26.60431 | 49.56870 | 9890 ft | 281 kts | 282° |
| 2026-04-24 19:52 | 26.60847 | 49.54734 | 9988 ft | 281 kts | 278° |
| 2026-04-24 19:52 | 26.60879 | 49.52596 | 10008 ft | 279 kts | 261° |
| 2026-04-24 19:52 | 26.60350 | 49.50520 | 10009 ft | 279 kts | 244° |
| 2026-04-24 19:53 | 26.59344 | 49.48677 | 10011 ft | 279 kts | 234° |
| 2026-04-24 19:53 | 26.58236 | 49.46899 | 10009 ft | 279 kts | 235° |
| 2026-04-24 19:53 | 26.56043 | 49.43326 | 10009 ft | 279 kts | 235° |
| 2026-04-24 19:54 | 26.54947 | 49.41537 | 10009 ft | 279 kts | 235° |
| 2026-04-24 19:54 | 26.53865 | 49.39773 | 10009 ft | 279 kts | 235° |
| 2026-04-24 19:54 | 26.52769 | 49.37992 | 10009 ft | 279 kts | 235° |
| 2026-04-24 19:54 | 26.51670 | 49.36206 | 10009 ft | 279 kts | 235° |
| 2026-04-24 19:55 | 26.50943 | 49.35024 | 10009 ft | 279 kts | 235° |
| 2026-04-24 19:55 | 26.49475 | 49.32636 | 10009 ft | 279 kts | 235° |
| 2026-04-24 19:55 | 26.48399 | 49.30837 | 10009 ft | 279 kts | 238° |
| 2026-04-24 19:55 | 26.47405 | 49.28977 | 10009 ft | 279 kts | 240° |
| 2026-04-24 19:56 | 26.46442 | 49.27068 | 10317 ft | 285 kts | 241° |
| 2026-04-24 19:56 | 26.45551 | 49.25275 | 10997 ft | 289 kts | 241° |
| 2026-04-24 19:56 | 26.44585 | 49.23329 | 11698 ft | 292 kts | 241° |
| 2026-04-24 19:56 | 26.43588 | 49.21336 | 12378 ft | 296 kts | 240° |
| 2026-04-24 19:57 | 26.42570 | 49.19323 | 13032 ft | 299 kts | 240° |
| 2026-04-24 19:57 | 26.41535 | 49.17294 | 13662 ft | 303 kts | 240° |
| 2026-04-24 19:57 | 26.40485 | 49.15242 | 14269 ft | 306 kts | 240° |
| 2026-04-24 19:57 | 26.39422 | 49.13169 | 14853 ft | 310 kts | 240° |
| 2026-04-24 19:58 | 26.38345 | 49.11071 | 15412 ft | 313 kts | 240° |
| 2026-04-24 19:58 | 26.37262 | 49.08953 | 15955 ft | 316 kts | 240° |
| 2026-04-24 19:58 | 26.36183 | 49.06843 | 16469 ft | 319 kts | 240° |
| 2026-04-24 19:58 | 26.35077 | 49.04681 | 16966 ft | 322 kts | 240° |
| 2026-04-24 19:59 | 26.33964 | 49.02504 | 17440 ft | 325 kts | 240° |
| 2026-04-24 19:59 | 26.32838 | 49.00304 | 17893 ft | 328 kts | 240° |
| 2026-04-24 19:59 | 26.31704 | 48.98093 | 18323 ft | 330 kts | 240° |
| 2026-04-24 19:59 | 26.30559 | 48.95863 | 18736 ft | 333 kts | 240° |
| 2026-04-24 20:00 | 26.29404 | 48.93610 | 19132 ft | 335 kts | 240° |
| 2026-04-24 20:00 | 26.28638 | 48.92116 | 19385 ft | 337 kts | 240° |
| 2026-04-24 20:00 | 26.27074 | 48.89074 | 19875 ft | 340 kts | 240° |
| 2026-04-24 20:00 | 26.25894 | 48.86775 | 20224 ft | 342 kts | 240° |
| 2026-04-24 20:01 | 26.24712 | 48.84469 | 20580 ft | 344 kts | 240° |
| 2026-04-24 20:01 | 26.23535 | 48.82178 | 20902 ft | 346 kts | 240° |
| 2026-04-24 20:01 | 26.22336 | 48.79852 | 20991 ft | 347 kts | 240° |
| 2026-04-24 20:01 | 26.21136 | 48.77526 | 21008 ft | 347 kts | 240° |
| 2026-04-24 20:02 | 26.20341 | 48.75982 | 21009 ft | 346 kts | 240° |
| 2026-04-24 20:02 | 26.18879 | 48.72793 | 21009 ft | 346 kts | 249° |
| 2026-04-24 20:02 | 26.18164 | 48.70234 | 21009 ft | 346 kts | 257° |
| 2026-04-24 20:02 | 26.17780 | 48.67587 | 21010 ft | 347 kts | 262° |
| 2026-04-24 20:03 | 26.17449 | 48.64931 | 21009 ft | 347 kts | 262° |
| 2026-04-24 20:03 | 26.17108 | 48.62273 | 21009 ft | 347 kts | 261° |
| 2026-04-24 20:03 | 26.16768 | 48.59654 | 21009 ft | 347 kts | 261° |
| 2026-04-24 20:03 | 26.16425 | 48.57000 | 21009 ft | 347 kts | 262° |
| 2026-04-24 20:04 | 26.16074 | 48.54270 | 21008 ft | 347 kts | 262° |
| 2026-04-24 20:04 | 26.15737 | 48.51649 | 21007 ft | 347 kts | 262° |
| 2026-04-24 20:04 | 26.15396 | 48.48998 | 21006 ft | 346 kts | 262° |
| 2026-04-24 20:04 | 26.15052 | 48.46345 | 21005 ft | 346 kts | 261° |
| 2026-04-24 20:05 | 26.14707 | 48.43691 | 21004 ft | 346 kts | 261° |
| 2026-04-24 20:05 | 26.14363 | 48.41036 | 21003 ft | 346 kts | 261° |
| 2026-04-24 20:05 | 26.14022 | 48.38383 | 21003 ft | 346 kts | 262° |
| 2026-04-24 20:05 | 26.13680 | 48.35735 | 21002 ft | 346 kts | 261° |
| 2026-04-24 20:06 | 26.13336 | 48.33081 | 21001 ft | 346 kts | 261° |
| 2026-04-24 20:06 | 26.12989 | 48.30431 | 21001 ft | 346 kts | 261° |
| 2026-04-24 20:06 | 26.12641 | 48.27784 | 21001 ft | 346 kts | 261° |
| 2026-04-24 20:06 | 26.12296 | 48.25162 | 21001 ft | 346 kts | 261° |
| 2026-04-24 20:07 | 26.12060 | 48.23372 | 21001 ft | 346 kts | 261° |
| 2026-04-24 20:07 | 26.11480 | 48.19887 | 20999 ft | 346 kts | 253° |
| 2026-04-24 20:07 | 26.10680 | 48.17457 | 20999 ft | 346 kts | 244° |
| 2026-04-24 20:07 | 26.09511 | 48.15125 | 20998 ft | 345 kts | 236° |
| 2026-04-24 20:08 | 26.08041 | 48.13014 | 20998 ft | 345 kts | 230° |
| 2026-04-24 20:08 | 26.06503 | 48.10960 | 20997 ft | 345 kts | 230° |
| 2026-04-24 20:08 | 26.04974 | 48.08901 | 20997 ft | 346 kts | 230° |
| 2026-04-24 20:08 | 26.03466 | 48.06862 | 20998 ft | 346 kts | 230° |
| 2026-04-24 20:09 | 26.01939 | 48.04800 | 20998 ft | 346 kts | 230° |
| 2026-04-24 20:09 | 26.00411 | 48.02734 | 20999 ft | 346 kts | 230° |
| 2026-04-24 20:09 | 25.98881 | 48.00668 | 20999 ft | 346 kts | 230° |
| 2026-04-24 20:09 | 25.97348 | 47.98603 | 21000 ft | 346 kts | 230° |
| 2026-04-24 20:10 | 25.95819 | 47.96547 | 21000 ft | 346 kts | 230° |
| 2026-04-24 20:10 | 25.94281 | 47.94483 | 21001 ft | 346 kts | 230° |
| 2026-04-24 20:10 | 25.92749 | 47.92426 | 21002 ft | 346 kts | 230° |
| 2026-04-24 20:10 | 25.91235 | 47.90394 | 21002 ft | 346 kts | 230° |
| 2026-04-24 20:11 | 25.89700 | 47.88334 | 21003 ft | 346 kts | 230° |
| 2026-04-24 20:11 | 25.88161 | 47.86269 | 21003 ft | 346 kts | 230° |
| 2026-04-24 20:11 | 25.86628 | 47.84211 | 21004 ft | 346 kts | 230° |
| 2026-04-24 20:11 | 25.85091 | 47.82148 | 21004 ft | 346 kts | 230° |
| 2026-04-24 20:12 | 25.83557 | 47.80088 | 21004 ft | 346 kts | 230° |
| 2026-04-24 20:12 | 25.82017 | 47.78020 | 21005 ft | 346 kts | 230° |
| 2026-04-24 20:12 | 25.80490 | 47.75976 | 21005 ft | 346 kts | 230° |
| 2026-04-24 20:12 | 25.78950 | 47.73921 | 21006 ft | 346 kts | 230° |
| 2026-04-24 20:13 | 25.77404 | 47.71860 | 21007 ft | 347 kts | 230° |
| 2026-04-24 20:13 | 25.75863 | 47.69801 | 21009 ft | 347 kts | 230° |
| 2026-04-24 20:13 | 25.74335 | 47.67758 | 21010 ft | 347 kts | 230° |
| 2026-04-24 20:13 | 25.72794 | 47.65697 | 21011 ft | 347 kts | 230° |
| 2026-04-24 20:14 | 25.71249 | 47.63634 | 21011 ft | 346 kts | 230° |
| 2026-04-24 20:14 | 25.69706 | 47.61574 | 21011 ft | 346 kts | 230° |
| 2026-04-24 20:14 | 25.68165 | 47.59517 | 21010 ft | 346 kts | 230° |
| 2026-04-24 20:14 | 25.66627 | 47.57461 | 21009 ft | 346 kts | 230° |
| 2026-04-24 20:15 | 25.65112 | 47.55432 | 20853 ft | 346 kts | 230° |
| 2026-04-24 20:15 | 25.63578 | 47.53380 | 20522 ft | 342 kts | 230° |
| 2026-04-24 20:15 | 25.62107 | 47.51330 | 20195 ft | 337 kts | 236° |
| 2026-04-24 20:15 | 25.60950 | 47.49094 | 19871 ft | 332 kts | 243° |
| 2026-04-24 20:16 | 25.59898 | 47.46838 | 19544 ft | 327 kts | 242° |
| 2026-04-24 20:16 | 25.58862 | 47.44637 | 19221 ft | 323 kts | 242° |
| 2026-04-24 20:16 | 25.57824 | 47.42439 | 18895 ft | 319 kts | 242° |
| 2026-04-24 20:16 | 25.56799 | 47.40268 | 18569 ft | 316 kts | 242° |
| 2026-04-24 20:17 | 25.56126 | 47.38841 | 18353 ft | 313 kts | 242° |
| 2026-04-24 20:17 | 25.53805 | 47.33916 | 17595 ft | 307 kts | 242° |
| 2026-04-24 20:17 | 25.52823 | 47.31833 | 17269 ft | 304 kts | 242° |
| 2026-04-24 20:18 | 25.52161 | 47.30431 | 17049 ft | 303 kts | 242° |
| 2026-04-24 20:18 | 25.50873 | 47.27704 | 16618 ft | 300 kts | 242° |
| 2026-04-24 20:18 | 25.50217 | 47.26318 | 16397 ft | 299 kts | 242° |
| 2026-04-24 20:18 | 25.49267 | 47.24311 | 16076 ft | 298 kts | 242° |
| 2026-04-24 20:19 | 25.48308 | 47.22291 | 15750 ft | 296 kts | 242° |
| 2026-04-24 20:19 | 25.47355 | 47.20281 | 15425 ft | 294 kts | 242° |
| 2026-04-24 20:19 | 25.46523 | 47.18220 | 15099 ft | 292 kts | 251° |
| 2026-04-24 20:19 | 25.45867 | 47.16099 | 14774 ft | 291 kts | 251° |
| 2026-04-24 20:20 | 25.45213 | 47.13990 | 14449 ft | 289 kts | 251° |
| 2026-04-24 20:20 | 25.44557 | 47.11892 | 14123 ft | 288 kts | 250° |
| 2026-04-24 20:20 | 25.43903 | 47.09808 | 13798 ft | 286 kts | 250° |
| 2026-04-24 20:20 | 25.43260 | 47.07765 | 13476 ft | 284 kts | 250° |
| 2026-04-24 20:21 | 25.42611 | 47.05707 | 13150 ft | 283 kts | 250° |
| 2026-04-24 20:21 | 25.41963 | 47.03659 | 12825 ft | 281 kts | 250° |
| 2026-04-24 20:21 | 25.41248 | 47.01658 | 12498 ft | 279 kts | 243° |
| 2026-04-24 20:21 | 25.40277 | 46.99808 | 12173 ft | 277 kts | 238° |
| 2026-04-24 20:22 | 25.39282 | 46.97990 | 11847 ft | 276 kts | 238° |
| 2026-04-24 20:22 | 25.38292 | 46.96182 | 11522 ft | 274 kts | 238° |
| 2026-04-24 20:22 | 25.37307 | 46.94383 | 11196 ft | 273 kts | 239° |
| 2026-04-24 20:22 | 25.36330 | 46.92594 | 10870 ft | 271 kts | 239° |
| 2026-04-24 20:23 | 25.35371 | 46.90838 | 10549 ft | 269 kts | 239° |
| 2026-04-24 20:23 | 25.34403 | 46.89072 | 10223 ft | 268 kts | 238° |
| 2026-04-24 20:23 | 25.33440 | 46.87321 | 9897 ft | 266 kts | 238° |
| 2026-04-24 20:23 | 25.32481 | 46.85576 | 9571 ft | 265 kts | 238° |
| 2026-04-24 20:24 | 25.31468 | 46.83891 | 9243 ft | 262 kts | 228° |
| 2026-04-24 20:24 | 25.30074 | 46.82640 | 8920 ft | 258 kts | 208° |
| 2026-04-24 20:24 | 25.28394 | 46.81981 | 8593 ft | 256 kts | 189° |
| 2026-04-24 20:24 | 25.26626 | 46.81972 | 8267 ft | 254 kts | 169° |
| 2026-04-24 20:25 | 25.24966 | 46.82601 | 7942 ft | 253 kts | 150° |
| 2026-04-24 20:25 | 25.23448 | 46.83583 | 7617 ft | 252 kts | 150° |
| 2026-04-24 20:25 | 25.21952 | 46.84535 | 7296 ft | 251 kts | 150° |
| 2026-04-24 20:25 | 25.20436 | 46.85490 | 6970 ft | 250 kts | 151° |
| 2026-04-24 20:26 | 25.18927 | 46.86439 | 6645 ft | 249 kts | 151° |
| 2026-04-24 20:26 | 25.17423 | 46.87386 | 6318 ft | 248 kts | 151° |
| 2026-04-24 20:26 | 25.15925 | 46.88329 | 5992 ft | 247 kts | 151° |
| 2026-04-24 20:26 | 25.14434 | 46.89267 | 5667 ft | 247 kts | 151° |
| 2026-04-24 20:27 | 25.12946 | 46.90207 | 5341 ft | 246 kts | 150° |
| 2026-04-24 20:27 | 25.11414 | 46.90994 | 5086 ft | 240 kts | 167° |
| 2026-04-24 20:27 | 25.09786 | 46.91060 | 4960 ft | 239 kts | 191° |
| 2026-04-24 20:27 | 25.08268 | 46.90371 | 4767 ft | 237 kts | 216° |
| 2026-04-24 20:28 | 25.07153 | 46.89053 | 4577 ft | 236 kts | 238° |
| 2026-04-24 20:28 | 25.06336 | 46.87490 | 4499 ft | 236 kts | 240° |
| 2026-04-24 20:28 | 25.05515 | 46.85917 | 4504 ft | 237 kts | 240° |
| 2026-04-24 20:28 | 25.04771 | 46.84301 | 4556 ft | 236 kts | 253° |
| 2026-04-24 20:29 | 25.04630 | 46.82505 | 4805 ft | 239 kts | 277° |
| 2026-04-24 20:29 | 25.05199 | 46.80791 | 5056 ft | 241 kts | 303° |
| 2026-04-24 20:29 | 25.06387 | 46.79486 | 5078 ft | 245 kts | 328° |
| 2026-04-24 20:29 | 25.07844 | 46.78584 | 4991 ft | 242 kts | 330° |
| 2026-04-24 20:30 | 25.09308 | 46.77671 | 5007 ft | 242 kts | 330° |
| 2026-04-24 20:30 | 25.10774 | 46.76748 | 5008 ft | 242 kts | 329° |
| 2026-04-24 20:30 | 25.12235 | 46.75823 | 5009 ft | 242 kts | 329° |
| 2026-04-24 20:30 | 25.13694 | 46.74898 | 5009 ft | 242 kts | 329° |
| 2026-04-24 20:31 | 25.15158 | 46.73970 | 5009 ft | 242 kts | 329° |
| 2026-04-24 20:31 | 25.16619 | 46.73045 | 5009 ft | 242 kts | 329° |
| 2026-04-24 20:31 | 25.18079 | 46.72122 | 5009 ft | 242 kts | 329° |
| 2026-04-24 20:31 | 25.19540 | 46.71197 | 5009 ft | 242 kts | 329° |
| 2026-04-24 20:32 | 25.20982 | 46.70284 | 5009 ft | 242 kts | 329° |
| 2026-04-24 20:32 | 25.22446 | 46.69358 | 5009 ft | 242 kts | 329° |
| 2026-04-24 20:32 | 25.23906 | 46.68433 | 5009 ft | 242 kts | 329° |
| 2026-04-24 20:32 | 25.25369 | 46.67508 | 5010 ft | 242 kts | 329° |
| 2026-04-24 20:33 | 25.26831 | 46.66583 | 5009 ft | 242 kts | 329° |
| 2026-04-24 20:33 | 25.28293 | 46.65658 | 5009 ft | 242 kts | 329° |
| 2026-04-24 20:33 | 25.29741 | 46.64742 | 5003 ft | 237 kts | 329° |
| 2026-04-24 20:33 | 25.31158 | 46.63844 | 5006 ft | 233 kts | 329° |
| 2026-04-24 20:34 | 25.32544 | 46.62965 | 5008 ft | 232 kts | 329° |
| 2026-04-24 20:34 | 25.33941 | 46.62079 | 5008 ft | 232 kts | 329° |
| 2026-04-24 20:34 | 25.35338 | 46.61191 | 5009 ft | 231 kts | 329° |
| 2026-04-24 20:34 | 25.36734 | 46.60301 | 5009 ft | 231 kts | 329° |
| 2026-04-24 20:35 | 25.38126 | 46.59413 | 5009 ft | 231 kts | 329° |
| 2026-04-24 20:35 | 25.39518 | 46.58525 | 5009 ft | 231 kts | 329° |
| 2026-04-24 20:35 | 25.40914 | 46.57634 | 5009 ft | 231 kts | 329° |
| 2026-04-24 20:35 | 25.42309 | 46.56745 | 5009 ft | 231 kts | 329° |
| 2026-04-24 20:36 | 25.43703 | 46.55859 | 5009 ft | 231 kts | 329° |
| 2026-04-24 20:36 | 25.45099 | 46.54974 | 5009 ft | 231 kts | 329° |
| 2026-04-24 20:36 | 25.46474 | 46.54098 | 5010 ft | 231 kts | 329° |
| 2026-04-24 20:36 | 25.47868 | 46.53208 | 5009 ft | 231 kts | 329° |
| 2026-04-24 20:37 | 25.49262 | 46.52320 | 5009 ft | 231 kts | 329° |
| 2026-04-24 20:37 | 25.50658 | 46.51430 | 5009 ft | 231 kts | 329° |
| 2026-04-24 20:37 | 25.51981 | 46.50435 | 5004 ft | 230 kts | 312° |
| 2026-04-24 20:37 | 25.52730 | 46.48900 | 5012 ft | 229 kts | 281° |
| 2026-04-24 20:38 | 25.52648 | 46.47168 | 5011 ft | 228 kts | 250° |
| 2026-04-24 20:38 | 25.51901 | 46.45627 | 5015 ft | 228 kts | 239° |
| 2026-04-24 20:38 | 25.51086 | 46.44119 | 5009 ft | 228 kts | 239° |
| 2026-04-24 20:38 | 25.50284 | 46.42633 | 5009 ft | 228 kts | 239° |
| 2026-04-24 20:39 | 25.49473 | 46.41126 | 5009 ft | 228 kts | 238° |
| 2026-04-24 20:39 | 25.48416 | 46.39844 | 5005 ft | 227 kts | 211° |
| 2026-04-24 20:39 | 25.46913 | 46.39379 | 5009 ft | 228 kts | 179° |
| 2026-04-24 20:39 | 25.45404 | 46.39874 | 5014 ft | 229 kts | 151° |
| 2026-04-24 20:40 | 25.44021 | 46.40760 | 5009 ft | 230 kts | 150° |
| 2026-04-24 20:40 | 25.42634 | 46.41646 | 5010 ft | 230 kts | 150° |
| 2026-04-24 20:40 | 25.41250 | 46.42528 | 5009 ft | 230 kts | 150° |
| 2026-04-24 20:40 | 25.39877 | 46.43404 | 4833 ft | 223 kts | 150° |
| 2026-04-24 20:41 | 25.38603 | 46.44220 | 4671 ft | 209 kts | 150° |
| 2026-04-24 20:41 | 25.37393 | 46.44995 | 4563 ft | 195 kts | 150° |
| 2026-04-24 20:41 | 25.36247 | 46.45727 | 4483 ft | 186 kts | 150° |
| 2026-04-24 20:41 | 25.35144 | 46.46431 | 4424 ft | 181 kts | 151° |
| 2026-04-24 20:42 | 25.34053 | 46.47124 | 4372 ft | 180 kts | 151° |
| 2026-04-24 20:42 | 25.32974 | 46.47809 | 4322 ft | 179 kts | 151° |
| 2026-04-24 20:42 | 25.31894 | 46.48495 | 4271 ft | 179 kts | 151° |
| 2026-04-24 20:42 | 25.30819 | 46.49179 | 4203 ft | 178 kts | 151° |
| 2026-04-24 20:43 | 25.29743 | 46.49864 | 4128 ft | 178 kts | 151° |
| 2026-04-24 20:43 | 25.28683 | 46.50537 | 4054 ft | 178 kts | 151° |
| 2026-04-24 20:43 | 25.27612 | 46.51217 | 3979 ft | 178 kts | 151° |
| 2026-04-24 20:43 | 25.26548 | 46.51893 | 3946 ft | 173 kts | 151° |
| 2026-04-24 20:44 | 25.25547 | 46.52530 | 3885 ft | 161 kts | 151° |
| 2026-04-24 20:44 | 25.24591 | 46.53137 | 3854 ft | 157 kts | 151° |
| 2026-04-24 20:44 | 25.23651 | 46.53734 | 3827 ft | 155 kts | 151° |
| 2026-04-24 20:44 | 25.22716 | 46.54327 | 3801 ft | 155 kts | 151° |
| 2026-04-24 20:45 | 25.21783 | 46.54920 | 3776 ft | 154 kts | 151° |
| 2026-04-24 20:45 | 25.20853 | 46.55510 | 3751 ft | 154 kts | 151° |
| 2026-04-24 20:45 | 25.19922 | 46.56100 | 3726 ft | 154 kts | 151° |
| 2026-04-24 20:45 | 25.19004 | 46.56683 | 3701 ft | 154 kts | 151° |
| 2026-04-24 20:46 | 25.18074 | 46.57274 | 3676 ft | 154 kts | 151° |
| 2026-04-24 20:46 | 25.17146 | 46.57863 | 3651 ft | 154 kts | 151° |
| 2026-04-24 20:46 | 25.16217 | 46.58453 | 3626 ft | 154 kts | 151° |
| 2026-04-24 20:46 | 25.15292 | 46.59039 | 3587 ft | 151 kts | 152° |
| 2026-04-24 20:47 | 25.14378 | 46.59596 | 3459 ft | 149 kts | 153° |
| 2026-04-24 20:47 | 25.13472 | 46.60136 | 3355 ft | 148 kts | 152° |
| 2026-04-24 20:47 | 25.12578 | 46.60685 | 3223 ft | 147 kts | 151° |
| 2026-04-24 20:47 | 25.11711 | 46.61256 | 3117 ft | 147 kts | 149° |
| 2026-04-24 20:48 | 25.10841 | 46.61839 | 3110 ft | 147 kts | 149° |
| 2026-04-24 20:48 | 25.09973 | 46.62431 | 3085 ft | 147 kts | 149° |
| 2026-04-24 20:48 | 25.09093 | 46.63006 | 3037 ft | 147 kts | 152° |
| 2026-04-24 20:48 | 25.08201 | 46.63553 | 2997 ft | 146 kts | 151° |
| 2026-04-24 20:49 | 25.07315 | 46.64104 | 2953 ft | 147 kts | 152° |
| 2026-04-24 20:49 | 25.06427 | 46.64656 | 2912 ft | 146 kts | 150° |
| 2026-04-24 20:49 | 25.05551 | 46.65225 | 2846 ft | 147 kts | 151° |
| 2026-04-24 20:49 | 25.04675 | 46.65763 | 2757 ft | 145 kts | 152° |
| 2026-04-24 20:50 | 25.03792 | 46.66309 | 2762 ft | 147 kts | 151° |
| 2026-04-24 20:50 | 25.02916 | 46.66879 | 2644 ft | 146 kts | 150° |
| 2026-04-24 20:50 | 25.02041 | 46.67442 | 2544 ft | 145 kts | 151° |
| 2026-04-24 20:50 | 25.01161 | 46.67979 | 2480 ft | 145 kts | 149° |
| 2026-04-24 20:51 | 25.00292 | 46.68540 | 2426 ft | 145 kts | 152° |
| 2026-04-24 20:51 | 24.99419 | 46.69101 | 2350 ft | 145 kts | 149° |
| 2026-04-24 20:51 | 24.98544 | 46.69647 | 2221 ft | 145 kts | 151° |
| 2026-04-24 20:51 | 24.97675 | 46.70204 | 2089 ft | 144 kts | 152° |
| 2026-04-24 20:52 | 24.96892 | 46.70698 | 2029 ft | 95 kts | 149° |
| 2026-04-24 20:52 | 24.96471 | 46.70970 | 2030 ft | 62 kts | 150° |
| 2026-04-24 20:52 | 24.96118 | 46.71190 | 2030 ft | 55 kts | 150° |
| 2026-04-24 20:52 | 24.95832 | 46.71371 | 2031 ft | 36 kts | 150° |
| 2026-04-24 20:53 | 24.95603 | 46.71423 | 2031 ft | 21 kts | 182° |
| 2026-04-24 20:53 | 24.95577 | 46.71417 | 2031 ft | 0 kts | 193° |
| 2026-04-24 20:54 | 24.95576 | 46.71417 | 2031 ft | 1 kts | 193° |
| 2026-04-24 20:54 | 24.95553 | 46.71411 | 2031 ft | 4 kts | 194° |
| 2026-04-24 20:54 | 24.95529 | 46.71403 | 2031 ft | 3 kts | 199° |
| 2026-04-24 20:55 | 24.95511 | 46.71393 | 2031 ft | 3 kts | 209° |
| 2026-04-24 20:55 | 24.95492 | 46.71375 | 2031 ft | 5 kts | 227° |
| 2026-04-24 20:55 | 24.95462 | 46.71322 | 2031 ft | 8 kts | 239° |
| 2026-04-24 20:55 | 24.95433 | 46.71270 | 2031 ft | 8 kts | 239° |
| 2026-04-24 20:56 | 24.95407 | 46.71223 | 2031 ft | 7 kts | 239° |
| 2026-04-24 20:56 | 24.95385 | 46.71182 | 2031 ft | 6 kts | 240° |
| 2026-04-24 20:56 | 24.95367 | 46.71147 | 2031 ft | 5 kts | 240° |
| 2026-04-24 20:56 | 24.95352 | 46.71119 | 2031 ft | 4 kts | 240° |
| 2026-04-24 20:57 | 24.95341 | 46.71097 | 2031 ft | 3 kts | 241° |
| 2026-04-24 20:57 | 24.95332 | 46.71061 | 2031 ft | 7 kts | 268° |
| 2026-04-24 20:57 | 24.95354 | 46.71019 | 2031 ft | 7 kts | 318° |
| 2026-04-24 20:57 | 24.95391 | 46.70993 | 2031 ft | 6 kts | 332° |
| 2026-04-24 20:58 | 24.95428 | 46.70971 | 2031 ft | 6 kts | 330° |
| 2026-04-24 20:58 | 24.95467 | 46.70946 | 2031 ft | 8 kts | 329° |
| 2026-04-24 20:58 | 24.95518 | 46.70913 | 2031 ft | 8 kts | 329° |
| 2026-04-24 20:58 | 24.95565 | 46.70883 | 2031 ft | 7 kts | 329° |
| 2026-04-24 20:59 | 24.95606 | 46.70856 | 2031 ft | 6 kts | 329° |
| 2026-04-24 20:59 | 24.95637 | 46.70830 | 2031 ft | 5 kts | 307° |
| 2026-04-24 20:59 | 24.95641 | 46.70799 | 2031 ft | 3 kts | 260° |
| 2026-04-24 20:59 | 24.95637 | 46.70778 | 2031 ft | 2 kts | 259° |
| 2026-04-24 21:00 | 24.95634 | 46.70762 | 2031 ft | 3 kts | 261° |
| 2026-04-24 21:00 | 24.95631 | 46.70735 | 2031 ft | 3 kts | 260° |
| 2026-04-24 21:00 | 24.95630 | 46.70730 | 2031 ft | 0 kts | 260° |